Culver City, California
Current Conditions -  °F | °C
As of 3:51 PM on Sunday 23 Nov 2014 (Local Time) from KSMO Reporting Station
Clear Clear  
Wind Chill: 77°   Ceiling: Unl
Heat Index: 77°   Visibility: 10mi
Dew Point:   Wind: 13mph
Humidity: 6%   Direction: 360°N
Pressure: 30.06"   Gusts: 26mph
Location:  34.02°N, 118.39°W
Report Text: KSMO 232351Z 36011G23KT 10SM CLR 25/M15 A3006 RMK AO2 PK WND 01028/2336 SLP177 T02501150 10272 20233 56000 $
Loading
Personal Weather Stations






























Interactive Weather Map New forecast layout! Learn more

10-Day Weather Forecast

Advertisements
Track Severe Weather on mobile